createdAt,value
2018-12-11T00:00:11.085Z,99.87
2018-12-11T00:01:11.070Z,99.30
2018-12-11T00:02:11.057Z,99.68
2018-12-11T00:03:11.048Z,99.02
2018-12-11T00:04:11.037Z,99.97
2018-12-11T00:05:11.022Z,99.49
2018-12-11T00:06:11.009Z,99.30
2018-12-11T00:07:10.998Z,99.21
2018-12-11T00:08:10.987Z,99.11
2018-12-11T00:09:10.982Z,99.11
2018-12-11T00:10:10.971Z,99.49
2018-12-11T00:11:10.956Z,99.30
2018-12-11T00:12:10.946Z,99.49
2018-12-11T00:13:10.927Z,99.21
2018-12-11T00:14:10.916Z,99.26
2018-12-11T00:15:10.903Z,99.35
2018-12-11T00:16:10.893Z,99.16
2018-12-11T00:17:10.886Z,99.30
2018-12-11T00:18:10.873Z,99.35
2018-12-11T00:19:10.856Z,99.16
2018-12-11T00:20:10.844Z,99.26
2018-12-11T00:21:10.839Z,99.54
2018-12-11T00:22:10.825Z,99.44
2018-12-11T00:23:10.815Z,99.63
2018-12-11T00:24:10.801Z,99.63
2018-12-11T00:25:10.785Z,99.99
2018-12-11T00:26:10.775Z,99.99
2018-12-11T00:27:10.763Z,99.99
2018-12-11T00:28:10.749Z,99.63
2018-12-11T00:29:10.743Z,99.91
2018-12-11T00:30:10.730Z,99.54
2018-12-11T00:31:10.718Z,99.63
2018-12-11T00:32:10.707Z,99.44
2018-12-11T00:33:10.690Z,99.63
2018-12-11T00:34:10.678Z,99.99
2018-12-11T00:35:10.671Z,99.99
2018-12-11T00:36:10.663Z,99.99
2018-12-11T00:37:10.644Z,99.99
2018-12-11T00:38:10.630Z,99.99
2018-12-11T00:39:10.618Z,99.91
2018-12-11T00:40:10.606Z,99.16
2018-12-11T00:41:10.600Z,99.54
2018-12-11T00:42:10.587Z,99.73
2018-12-11T00:43:10.578Z,99.73
2018-12-11T00:44:10.563Z,99.91
2018-12-11T00:45:10.574Z,99.26
2018-12-11T00:46:10.536Z,99.73
2018-12-11T00:47:10.522Z,99.99
2018-12-11T00:48:10.511Z,99.73
2018-12-11T00:49:10.504Z,99.73
2018-12-11T00:50:10.490Z,99.99
2018-12-11T00:51:10.474Z,99.91
2018-12-11T00:52:10.463Z,99.82
2018-12-11T00:53:10.458Z,99.63
2018-12-11T00:54:10.442Z,99.73
2018-12-11T00:55:10.431Z,98.97
2018-12-11T00:56:10.420Z,99.73
2018-12-11T00:57:10.402Z,99.99
2018-12-11T00:58:10.390Z,99.82
2018-12-11T00:59:10.382Z,99.82
2018-12-11T01:00:10.366Z,99.16
2018-12-11T01:01:10.358Z,99.99
2018-12-11T01:02:10.346Z,99.99
2018-12-11T01:03:10.336Z,99.99
2018-12-11T01:04:10.324Z,99.99
2018-12-11T01:05:10.309Z,99.99
2018-12-11T01:06:10.295Z,99.99
2018-12-11T01:07:10.289Z,99.99
2018-12-11T01:08:10.276Z,99.99
2018-12-11T01:09:10.258Z,99.99
2018-12-11T01:10:10.247Z,99.91
2018-12-11T01:11:10.235Z,99.54
2018-12-11T01:12:10.222Z,99.73
2018-12-11T01:13:10.215Z,99.73
2018-12-11T01:14:10.203Z,99.16
2018-12-11T01:15:10.193Z,99.16
2018-12-11T01:16:10.179Z,99.63
2018-12-11T01:17:10.163Z,99.44
2018-12-11T01:18:10.150Z,99.44
2018-12-11T01:19:10.138Z,99.63
2018-12-11T01:20:10.128Z,99.16
2018-12-11T01:21:10.121Z,99.35
2018-12-11T01:22:10.108Z,99.06
2018-12-11T01:23:10.091Z,99.63
2018-12-11T01:24:10.080Z,99.35
2018-12-11T01:25:10.072Z,99.16
2018-12-11T01:26:10.060Z,99.63
2018-12-11T01:27:10.047Z,99.82
2018-12-11T01:28:10.035Z,99.99
2018-12-11T01:29:10.020Z,99.99
2018-12-11T01:30:10.007Z,99.99
2018-12-11T01:31:09.995Z,99.99
2018-12-11T01:32:09.985Z,99.06
2018-12-11T01:33:09.977Z,99.73
2018-12-11T01:34:09.963Z,99.99
2018-12-11T01:35:09.961Z,99.99
2018-12-11T01:36:09.941Z,99.99
2018-12-11T01:37:09.925Z,99.99
2018-12-11T01:38:09.911Z,99.91
2018-12-11T01:39:09.906Z,99.82
2018-12-11T01:40:09.893Z,99.73
2018-12-11T01:41:09.877Z,99.99
2018-12-11T01:42:09.864Z,99.99
2018-12-11T01:43:09.853Z,99.99
2018-12-11T01:44:09.840Z,99.99
2018-12-11T01:45:09.834Z,99.99
2018-12-11T01:46:09.820Z,99.99
2018-12-11T01:47:09.811Z,99.99
2018-12-11T01:48:09.796Z,99.99
2018-12-11T01:49:09.780Z,99.99
2018-12-11T01:50:09.768Z,99.99
2018-12-11T01:51:09.758Z,99.99
2018-12-11T01:52:09.744Z,99.99
2018-12-11T01:53:09.742Z,99.99
2018-12-11T01:54:09.724Z,99.99
2018-12-11T01:55:09.708Z,99.99
2018-12-11T01:56:09.696Z,99.99
2018-12-11T01:57:09.691Z,99.99
2018-12-11T01:58:09.677Z,99.99
2018-12-11T01:59:09.665Z,99.99
2018-12-11T02:00:09.655Z,99.99
2018-12-11T02:01:09.636Z,99.99
2018-12-11T02:02:09.625Z,99.99
2018-12-11T02:03:09.612Z,99.99
2018-12-11T02:04:09.601Z,99.99
2018-12-11T02:05:09.595Z,99.99
2018-12-11T02:06:09.586Z,99.99
2018-12-11T02:07:09.569Z,99.99
2018-12-11T02:08:09.559Z,99.99
2018-12-11T02:09:09.542Z,99.99
2018-12-11T02:10:09.529Z,99.73
2018-12-11T02:11:09.523Z,99.99
2018-12-11T02:12:09.511Z,99.99
2018-12-11T02:13:09.494Z,99.99
2018-12-11T02:14:09.482Z,99.99
2018-12-11T02:15:09.469Z,99.99
2018-12-11T02:16:09.457Z,99.99
2018-12-11T02:17:09.451Z,99.99
2018-12-11T02:18:09.437Z,99.99
2018-12-11T02:19:09.426Z,99.99
2018-12-11T02:20:09.415Z,99.99
2018-12-11T02:21:09.397Z,99.99
2018-12-11T02:22:09.385Z,99.99
2018-12-11T02:23:09.375Z,99.99
2018-12-11T02:24:09.361Z,99.99
2018-12-11T02:25:09.357Z,99.99
2018-12-11T02:26:09.343Z,99.99
2018-12-11T02:27:09.326Z,99.99
2018-12-11T02:28:09.314Z,99.99
2018-12-11T02:29:09.308Z,99.99
2018-12-11T02:30:09.298Z,99.99
2018-12-11T02:31:09.282Z,99.99
2018-12-11T02:32:09.272Z,99.99
2018-12-11T02:33:09.254Z,99.99
2018-12-11T02:34:09.242Z,99.99
2018-12-11T02:35:09.232Z,99.99
2018-12-11T02:36:09.218Z,99.99
2018-12-11T02:37:09.213Z,99.99
2018-12-11T02:38:09.202Z,99.99
2018-12-11T02:39:09.188Z,99.99
2018-12-11T02:40:09.176Z,99.99
2018-12-11T02:41:09.160Z,99.99
2018-12-11T02:42:09.148Z,99.99
2018-12-11T02:43:09.140Z,99.99
2018-12-11T02:44:09.142Z,99.99
2018-12-11T02:45:09.112Z,99.99
2018-12-11T02:46:09.099Z,99.99
2018-12-11T02:47:09.089Z,99.99
2018-12-11T02:48:09.076Z,99.99
2018-12-11T02:49:09.068Z,99.99
2018-12-11T02:50:09.056Z,99.99
2018-12-11T02:51:09.046Z,99.99
2018-12-11T02:52:09.033Z,99.99
2018-12-11T02:53:09.016Z,99.99
2018-12-11T02:54:09.009Z,99.99
2018-12-11T02:55:08.992Z,99.73
2018-12-11T02:56:08.981Z,99.99
2018-12-11T02:57:08.975Z,99.99
2018-12-11T02:58:08.962Z,99.82
2018-12-11T02:59:08.945Z,99.99
2018-12-11T03:00:08.938Z,99.99
2018-12-11T03:01:08.928Z,99.99
2018-12-11T03:02:08.914Z,99.26
2018-12-11T03:03:08.904Z,99.99
2018-12-11T03:04:08.890Z,99.91
2018-12-11T03:05:08.876Z,99.99
2018-12-11T03:06:08.862Z,99.99
2018-12-11T03:07:08.851Z,99.99
2018-12-11T03:08:08.851Z,99.99
2018-12-11T03:09:08.833Z,99.99
2018-12-11T03:10:08.823Z,99.91
2018-12-11T03:11:08.815Z,99.99
2018-12-11T03:12:08.796Z,99.99
2018-12-11T03:13:08.782Z,99.99
2018-12-11T03:14:08.768Z,99.99
2018-12-11T03:15:08.760Z,99.99
2018-12-11T03:16:08.749Z,99.73
2018-12-11T03:17:08.735Z,99.99
2018-12-11T03:18:08.721Z,99.99
2018-12-11T03:19:08.711Z,99.99
2018-12-11T03:20:08.697Z,99.99
2018-12-11T03:21:08.690Z,99.99
2018-12-11T03:22:08.682Z,99.99
2018-12-11T03:23:08.668Z,99.99
2018-12-11T03:24:08.655Z,99.99
2018-12-11T03:25:08.638Z,99.99
2018-12-11T03:26:08.629Z,99.99
2018-12-11T03:27:08.614Z,99.99
2018-12-11T03:28:08.602Z,99.99
2018-12-11T03:29:08.594Z,99.99
2018-12-11T03:30:08.585Z,99.99
2018-12-11T03:31:08.566Z,99.99
2018-12-11T03:32:08.591Z,99.99
2018-12-11T03:33:08.546Z,99.99
2018-12-11T03:34:08.533Z,99.99
2018-12-11T03:35:08.523Z,99.99
2018-12-11T03:36:08.510Z,99.99
2018-12-11T03:37:08.494Z,99.99
2018-12-11T03:38:08.480Z,99.99
2018-12-11T03:39:08.468Z,99.99
2018-12-11T03:40:08.456Z,99.99
2018-12-11T03:41:08.450Z,99.99
2018-12-11T03:42:08.437Z,99.99
2018-12-11T03:43:08.423Z,99.99
2018-12-11T03:44:08.412Z,99.99
2018-12-11T03:45:08.397Z,99.99
2018-12-11T03:46:08.383Z,99.99
2018-12-11T03:47:08.375Z,99.99
2018-12-11T03:48:08.375Z,99.99
2018-12-11T03:49:08.345Z,99.99
2018-12-11T03:50:08.333Z,99.99
2018-12-11T03:51:08.404Z,99.99
2018-12-11T03:52:08.310Z,99.99
2018-12-11T03:53:08.302Z,99.99
2018-12-11T03:54:08.294Z,99.99
2018-12-11T03:55:08.276Z,99.99
2018-12-11T03:56:08.265Z,99.99
2018-12-11T03:57:08.248Z,99.99
2018-12-11T03:58:08.234Z,99.99
2018-12-11T03:59:08.223Z,99.99
2018-12-11T04:00:08.210Z,99.99
2018-12-11T04:01:08.202Z,99.99
2018-12-11T04:02:08.189Z,99.99
2018-12-11T04:03:08.173Z,99.99
2018-12-11T04:04:08.160Z,99.99
2018-12-11T04:05:08.153Z,99.99
2018-12-11T04:06:08.138Z,99.99
2018-12-11T04:07:08.129Z,99.99
2018-12-11T04:08:08.115Z,99.99
2018-12-11T04:09:08.099Z,99.99
2018-12-11T04:10:08.085Z,99.99
2018-12-11T04:11:08.075Z,99.99
2018-12-11T04:12:08.061Z,99.99
2018-12-11T04:13:08.054Z,99.99
2018-12-11T04:14:08.041Z,99.99
2018-12-11T04:15:08.030Z,99.99
2018-12-11T04:16:08.017Z,99.99
2018-12-11T04:17:08.000Z,99.99
2018-12-11T04:18:07.987Z,99.99
2018-12-11T04:19:07.982Z,99.99
2018-12-11T04:20:07.969Z,99.99
2018-12-11T04:21:07.951Z,99.99
2018-12-11T04:22:07.938Z,99.99
2018-12-11T04:23:07.926Z,99.99
2018-12-11T04:24:07.914Z,99.99
2018-12-11T04:25:07.918Z,99.99
2018-12-11T04:26:07.893Z,99.99
2018-12-11T04:27:07.883Z,99.99
2018-12-11T04:28:07.869Z,99.99
2018-12-11T04:29:07.856Z,99.99
2018-12-11T04:30:07.841Z,99.99
2018-12-11T04:31:07.830Z,99.99
2018-12-11T04:32:07.818Z,99.99
2018-12-11T04:33:07.823Z,99.99
2018-12-11T04:34:07.806Z,99.99
2018-12-11T04:35:07.780Z,99.99
2018-12-11T04:36:07.769Z,99.99
2018-12-11T04:37:07.763Z,99.99
2018-12-11T04:38:07.749Z,99.99
2018-12-11T04:39:07.737Z,99.99
2018-12-11T04:40:07.730Z,99.99
2018-12-11T04:41:07.711Z,99.99
2018-12-11T04:42:07.696Z,99.99
2018-12-11T04:43:07.692Z,99.99
2018-12-11T04:44:07.675Z,99.99
2018-12-11T04:45:07.668Z,99.99
2018-12-11T04:46:07.651Z,99.99
2018-12-11T04:47:07.650Z,99.99
2018-12-11T04:48:07.628Z,99.99
2018-12-11T04:49:07.609Z,99.99
2018-12-11T04:50:07.596Z,99.99
2018-12-11T04:51:07.589Z,99.99
2018-12-11T04:52:07.576Z,99.99
2018-12-11T04:53:07.559Z,99.99
2018-12-11T04:54:07.548Z,99.99
2018-12-11T04:55:07.535Z,99.99
2018-12-11T04:56:07.522Z,99.99
2018-12-11T04:57:07.514Z,99.99
2018-12-11T04:58:07.501Z,99.99
2018-12-11T04:59:07.488Z,99.99
2018-12-11T05:00:07.480Z,99.99
2018-12-11T05:01:07.461Z,99.99
2018-12-11T05:02:07.447Z,99.99
2018-12-11T05:03:07.435Z,99.99
2018-12-11T05:04:07.422Z,99.99
2018-12-11T05:05:07.416Z,99.99
2018-12-11T05:06:07.402Z,99.99
2018-12-11T05:07:07.387Z,99.99
2018-12-11T05:08:07.373Z,99.99
2018-12-11T05:09:07.369Z,99.99
2018-12-11T05:10:07.352Z,99.99
2018-12-11T05:11:07.339Z,99.99
2018-12-11T05:12:07.329Z,99.99
2018-12-11T05:13:07.318Z,99.99
2018-12-11T05:14:07.304Z,99.99
2018-12-11T05:15:07.288Z,99.99
2018-12-11T05:16:07.276Z,99.99
2018-12-11T05:17:07.268Z,99.99
2018-12-11T05:18:07.255Z,99.99
2018-12-11T05:19:07.241Z,99.99
2018-12-11T05:20:07.230Z,99.99
2018-12-11T05:21:07.215Z,99.99
2018-12-11T05:22:07.200Z,99.99
2018-12-11T05:23:07.194Z,99.99
2018-12-11T05:24:07.182Z,99.99
2018-12-11T05:25:07.164Z,99.99
2018-12-11T05:26:07.151Z,99.99
2018-12-11T05:27:07.140Z,99.99
2018-12-11T05:28:07.128Z,99.99
2018-12-11T05:29:07.176Z,99.99
2018-12-11T05:30:07.109Z,99.99
2018-12-11T05:31:07.096Z,99.99
2018-12-11T05:32:07.085Z,99.99
2018-12-11T05:33:07.070Z,99.99
2018-12-11T05:34:07.055Z,99.99
2018-12-11T05:35:07.043Z,99.99
2018-12-11T05:36:07.031Z,99.99
2018-12-11T05:37:07.024Z,99.99
2018-12-11T05:38:07.011Z,99.99
2018-12-11T05:39:06.994Z,99.99
2018-12-11T05:40:06.982Z,99.99
2018-12-11T05:41:06.976Z,99.99
2018-12-11T05:42:06.967Z,99.99
2018-12-11T05:43:06.951Z,99.99
2018-12-11T05:44:06.939Z,99.99
2018-12-11T05:45:06.924Z,99.99
2018-12-11T05:46:06.909Z,99.99
2018-12-11T05:47:06.898Z,99.99
2018-12-11T05:48:06.886Z,99.99
2018-12-11T05:49:06.879Z,99.99
2018-12-11T05:50:06.868Z,99.99
2018-12-11T05:51:06.856Z,99.99
2018-12-11T05:52:06.842Z,99.99
2018-12-11T05:53:06.828Z,99.99
2018-12-11T05:54:06.814Z,99.99
2018-12-11T05:55:06.861Z,99.99
2018-12-11T05:56:06.794Z,99.99
2018-12-11T05:57:06.778Z,99.99
2018-12-11T05:58:06.766Z,99.99
2018-12-11T05:59:06.754Z,99.99
2018-12-11T06:00:06.743Z,99.99
2018-12-11T06:01:06.737Z,99.99
2018-12-11T06:02:06.723Z,99.99
2018-12-11T06:03:06.712Z,99.99
2018-12-11T06:04:06.700Z,99.99
2018-12-11T06:05:06.683Z,99.99
2018-12-11T06:06:06.670Z,99.99
2018-12-11T06:07:06.658Z,99.99
2018-12-11T06:08:06.647Z,99.99
2018-12-11T06:09:06.639Z,99.99
2018-12-11T06:10:06.627Z,99.99
2018-12-11T06:11:06.611Z,99.99
2018-12-11T06:12:06.599Z,99.99
2018-12-11T06:13:06.592Z,99.99
2018-12-11T06:14:06.579Z,99.99
2018-12-11T06:15:06.568Z,99.99
2018-12-11T06:16:06.556Z,99.99
2018-12-11T06:17:06.539Z,99.99
2018-12-11T06:18:06.527Z,99.99
2018-12-11T06:19:06.523Z,99.99
2018-12-11T06:20:06.511Z,99.99
2018-12-11T06:21:06.492Z,99.99
2018-12-11T06:22:06.481Z,99.99
2018-12-11T06:23:06.468Z,99.99
2018-12-11T06:24:06.458Z,99.99
2018-12-11T06:25:06.448Z,99.99
2018-12-11T06:26:06.435Z,99.99
2018-12-11T06:27:06.419Z,99.99
2018-12-11T06:28:06.409Z,99.99
2018-12-11T06:29:06.406Z,99.99
2018-12-11T06:30:06.388Z,99.99
2018-12-11T06:31:06.377Z,99.99
2018-12-11T06:32:06.365Z,99.99
2018-12-11T06:33:06.348Z,99.99
2018-12-11T06:34:06.336Z,99.99
2018-12-11T06:35:06.325Z,99.99
2018-12-11T06:36:06.313Z,99.99
2018-12-11T06:37:06.306Z,99.99
2018-12-11T06:38:06.294Z,99.99
2018-12-11T06:39:06.280Z,99.99
2018-12-11T06:40:06.270Z,99.99
2018-12-11T06:41:06.253Z,99.99
2018-12-11T06:42:06.240Z,99.99
2018-12-11T06:43:06.235Z,99.99
2018-12-11T06:44:06.221Z,99.99
2018-12-11T06:45:06.207Z,99.99
2018-12-11T06:46:06.194Z,99.99
2018-12-11T06:47:06.182Z,99.99
2018-12-11T06:48:06.170Z,99.99
2018-12-11T06:49:06.169Z,99.99
2018-12-11T06:50:06.151Z,99.99
2018-12-11T06:51:06.143Z,99.99
2018-12-11T06:52:06.134Z,99.99
2018-12-11T06:53:06.111Z,99.99
2018-12-11T06:54:06.099Z,99.99
2018-12-11T06:55:06.087Z,99.99
2018-12-11T06:56:06.074Z,99.99
2018-12-11T06:57:06.069Z,99.99
2018-12-11T06:58:06.055Z,99.99
2018-12-11T06:59:06.038Z,99.99
2018-12-11T07:00:06.028Z,99.99
2018-12-11T07:01:06.019Z,99.99
2018-12-11T07:02:06.007Z,99.99
2018-12-11T07:03:05.997Z,99.99
2018-12-11T07:04:05.985Z,99.99
2018-12-11T07:05:05.968Z,99.99
2018-12-11T07:06:05.955Z,99.99
2018-12-11T07:07:05.945Z,99.99
2018-12-11T07:08:05.931Z,99.99
2018-12-11T07:09:05.925Z,99.99
2018-12-11T07:10:05.914Z,99.99
2018-12-11T07:11:05.908Z,99.99
2018-12-11T07:12:05.888Z,99.99
2018-12-11T07:13:05.873Z,99.99
2018-12-11T07:14:05.859Z,99.99
2018-12-11T07:15:05.855Z,99.99
2018-12-11T07:16:05.841Z,99.99
2018-12-11T07:17:05.824Z,99.99
2018-12-11T07:18:05.813Z,99.99
2018-12-11T07:19:05.801Z,99.99
2018-12-11T07:20:05.788Z,99.99
2018-12-11T07:21:05.781Z,99.99
2018-12-11T07:22:05.768Z,99.99
2018-12-11T07:23:05.760Z,99.99
2018-12-11T07:24:05.744Z,99.99
2018-12-11T07:25:05.729Z,99.99
2018-12-11T07:26:05.716Z,99.99
2018-12-11T07:27:05.704Z,99.99
2018-12-11T07:28:05.693Z,99.99
2018-12-11T07:29:05.688Z,99.99
2018-12-11T07:30:05.672Z,99.99
2018-12-11T07:31:05.654Z,99.99
2018-12-11T07:32:05.651Z,99.99
2018-12-11T07:33:05.637Z,99.99
2018-12-11T07:34:05.623Z,99.99
2018-12-11T07:35:05.612Z,99.99
2018-12-11T07:36:05.604Z,99.99
2018-12-11T07:37:05.582Z,99.99
2018-12-11T07:38:05.570Z,99.99
2018-12-11T07:39:05.559Z,99.99
2018-12-11T07:40:05.546Z,99.99
2018-12-11T07:41:05.541Z,99.99
2018-12-11T07:42:05.530Z,99.99
2018-12-11T07:43:05.513Z,99.99
2018-12-11T07:44:05.500Z,99.99
2018-12-11T07:45:05.483Z,99.99
2018-12-11T07:46:05.471Z,99.99
2018-12-11T07:47:05.463Z,99.99
2018-12-11T07:48:05.515Z,99.99
2018-12-11T07:49:05.435Z,99.99
2018-12-11T07:50:05.420Z,99.99
2018-12-11T07:51:05.409Z,99.99
2018-12-11T07:52:05.396Z,99.99
2018-12-11T07:53:06.416Z,99.99
2018-12-11T07:54:05.376Z,99.99
2018-12-11T07:55:05.362Z,99.99
2018-12-11T07:56:05.354Z,99.99
2018-12-11T07:57:05.334Z,99.99
2018-12-11T07:58:05.322Z,99.99
2018-12-11T07:59:05.310Z,99.99
2018-12-11T08:00:05.298Z,99.99
2018-12-11T08:01:05.290Z,99.99
2018-12-11T08:02:05.284Z,99.99
2018-12-11T08:03:05.262Z,99.99
2018-12-11T08:04:05.248Z,99.99
2018-12-11T08:05:05.241Z,99.99
2018-12-11T08:06:05.227Z,99.99
2018-12-11T08:07:05.214Z,99.99
2018-12-11T08:08:05.202Z,99.99
2018-12-11T08:09:05.186Z,99.99
2018-12-11T08:10:05.291Z,99.99
2018-12-11T08:11:05.161Z,99.99
2018-12-11T08:12:08.237Z,99.99
2018-12-11T08:13:05.143Z,99.99
2018-12-11T08:14:05.130Z,99.99
2018-12-11T08:15:05.120Z,99.99
2018-12-11T08:16:05.109Z,99.99
2018-12-11T08:17:05.093Z,99.99
2018-12-11T08:18:05.080Z,99.99
2018-12-11T08:19:05.070Z,99.99
2018-12-11T08:20:05.059Z,99.99
2018-12-11T08:21:05.042Z,99.99
2018-12-11T08:22:05.029Z,99.99
2018-12-11T08:23:05.020Z,99.99
2018-12-11T08:24:05.008Z,99.99
2018-12-11T08:25:05.009Z,99.99
2018-12-11T08:26:04.987Z,99.99
2018-12-11T08:27:04.978Z,99.99
2018-12-11T08:28:04.963Z,99.99
2018-12-11T08:29:04.948Z,99.99
2018-12-11T08:30:04.935Z,99.99
2018-12-11T08:31:04.924Z,99.99
2018-12-11T08:32:04.913Z,99.68
2018-12-11T08:33:04.906Z,99.68
2018-12-11T08:34:04.895Z,99.58
2018-12-11T08:35:04.877Z,99.99
2018-12-11T08:36:04.865Z,99.11
2018-12-11T08:37:04.859Z,99.30
2018-12-11T08:38:04.847Z,99.11
2018-12-11T08:39:04.836Z,99.35
2018-12-11T08:40:04.825Z,99.99
2018-12-11T08:41:04.811Z,99.99
2018-12-11T08:42:04.797Z,99.54
2018-12-11T08:43:04.787Z,99.54
2018-12-11T08:44:04.776Z,98.97
2018-12-11T08:45:04.769Z,98.59
2018-12-11T08:46:04.757Z,98.79
2018-12-11T08:47:04.745Z,98.40
2018-12-11T08:48:04.737Z,98.79
2018-12-11T08:49:04.719Z,98.21
2018-12-11T08:50:04.707Z,98.69
2018-12-11T08:51:04.699Z,98.88
2018-12-11T08:52:04.691Z,98.21
2018-12-11T08:53:04.674Z,97.83
2018-12-11T08:54:04.663Z,97.74
2018-12-11T08:55:04.653Z,98.02
2018-12-11T08:56:04.640Z,98.12
2018-12-11T08:57:04.637Z,98.12
2018-12-11T08:58:04.623Z,98.12
2018-12-11T08:59:06.744Z,98.02
2018-12-11T09:00:04.602Z,97.60
2018-12-11T09:01:04.585Z,98.83
2018-12-11T09:02:04.573Z,97.78
2018-12-11T09:03:04.564Z,97.31
2018-12-11T09:04:04.553Z,97.50
2018-12-11T09:05:04.548Z,97.22
2018-12-11T09:06:04.535Z,97.50
2018-12-11T09:07:04.520Z,97.12
2018-12-11T09:08:04.509Z,97.12
2018-12-11T09:09:04.506Z,96.65
2018-12-11T09:10:04.504Z,97.50
2018-12-11T09:11:04.482Z,96.88
2018-12-11T09:12:04.471Z,96.45
2018-12-11T09:13:04.456Z,97.12
2018-12-11T09:14:04.445Z,97.50
2018-12-11T09:15:04.436Z,96.65
2018-12-11T09:16:04.425Z,97.88
2018-12-11T09:17:10.107Z,97.03
2018-12-11T09:18:04.407Z,96.84
2018-12-11T09:19:04.398Z,97.41
2018-12-11T09:20:04.386Z,97.41
2018-12-11T09:21:04.371Z,96.45
2018-12-11T09:22:04.368Z,96.45
2018-12-11T09:23:04.355Z,96.22
2018-12-11T09:24:04.345Z,96.36
2018-12-11T09:25:04.330Z,97.12
2018-12-11T09:26:04.318Z,96.60
2018-12-11T09:27:04.309Z,96.26
2018-12-11T09:28:10.787Z,97.22
2018-12-11T09:29:04.293Z,97.41
2018-12-11T09:30:04.284Z,97.12
2018-12-11T09:31:04.273Z,96.45
2018-12-11T09:32:04.265Z,96.65
2018-12-11T09:33:04.249Z,96.45
2018-12-11T09:34:04.238Z,96.79
2018-12-11T09:35:04.226Z,96.41
2018-12-11T09:36:04.216Z,95.84
2018-12-11T09:37:04.210Z,96.12
2018-12-11T09:38:04.199Z,95.65
2018-12-11T09:39:04.183Z,95.41
2018-12-11T09:40:04.173Z,95.03
2018-12-11T09:41:04.173Z,95.08
2018-12-11T09:42:07.201Z,95.12
2018-12-11T09:43:04.148Z,93.70
2018-12-11T09:44:04.254Z,91.83
2018-12-11T09:45:04.123Z,90.17
2018-12-11T09:46:04.117Z,87.82
2018-12-11T09:47:04.104Z,85.48
2018-12-11T09:48:04.098Z,83.47
2018-12-11T09:49:04.091Z,81.93
2018-12-11T09:50:04.082Z,79.68
2018-12-11T09:51:04.075Z,78.66
2018-12-11T09:52:04.073Z,77.02
2018-12-11T09:53:04.059Z,75.14
2018-12-11T09:54:04.048Z,72.27
2018-12-11T09:55:04.047Z,71.15
2018-12-11T09:56:04.044Z,69.65
2018-12-11T09:57:04.034Z,68.44
2018-12-11T09:58:04.025Z,67.35
2018-12-11T09:59:04.020Z,66.86
2018-12-11T10:00:04.015Z,66.58
2018-12-11T10:01:04.018Z,65.84
2018-12-11T10:02:04.011Z,66.42
2018-12-11T10:03:04.008Z,67.34
2018-12-11T10:04:04.004Z,68.13
2018-12-11T10:05:03.994Z,69.48
2018-12-11T10:06:03.991Z,71.16
2018-12-11T10:07:03.984Z,72.79
2018-12-11T10:08:03.981Z,72.66
2018-12-11T10:09:03.982Z,73.61
2018-12-11T10:10:03.977Z,75.05
2018-12-11T10:11:03.968Z,76.10
2018-12-11T10:12:03.963Z,75.91
2018-12-11T10:13:03.965Z,76.54
2018-12-11T10:14:04.016Z,77.30
2018-12-11T10:15:03.954Z,77.87
2018-12-11T10:16:03.949Z,78.36
2018-12-11T10:17:03.941Z,77.69
2018-12-11T10:18:03.934Z,77.84
2018-12-11T10:19:03.929Z,78.79
2018-12-11T10:20:05.428Z,78.99
2018-12-11T10:21:03.924Z,78.99
2018-12-11T10:22:03.922Z,79.23
2018-12-11T10:23:03.914Z,80.05
2018-12-11T10:24:03.908Z,81.58
2018-12-11T10:25:03.900Z,81.86
2018-12-11T10:26:03.892Z,82.43
2018-12-11T10:27:03.892Z,83.29
2018-12-11T10:28:03.886Z,83.73
2018-12-11T10:29:03.875Z,83.92
2018-12-11T10:30:03.869Z,84.49
2018-12-11T10:31:03.863Z,84.97
2018-12-11T10:32:03.856Z,85.41
2018-12-11T10:33:03.855Z,85.78
2018-12-11T10:34:03.915Z,86.16
2018-12-11T10:35:03.841Z,86.74
2018-12-11T10:36:03.835Z,87.12
2018-12-11T10:37:03.826Z,86.55
2018-12-11T10:38:03.819Z,87.60
2018-12-11T10:39:03.811Z,87.40
2018-12-11T10:40:03.803Z,87.12
2018-12-11T10:41:03.799Z,86.60
2018-12-11T10:42:03.793Z,86.88
2018-12-11T10:43:03.784Z,87.69
2018-12-11T10:44:03.773Z,87.40
2018-12-11T10:45:03.770Z,88.26
2018-12-11T10:46:03.762Z,87.40
2018-12-11T10:47:03.754Z,84.96
2018-12-11T10:48:03.749Z,83.04
2018-12-11T10:49:03.736Z,81.07
2018-12-11T10:50:03.734Z,79.05
2018-12-11T10:51:03.721Z,76.98
2018-12-11T10:52:03.722Z,75.29
2018-12-11T10:53:03.714Z,72.38
2018-12-11T10:54:03.706Z,71.87
2018-12-11T10:55:03.701Z,71.73
2018-12-11T10:56:03.699Z,72.41
2018-12-11T10:57:03.687Z,73.71
2018-12-11T10:58:03.680Z,73.96
2018-12-11T10:59:03.681Z,75.35
2018-12-11T11:00:03.679Z,76.79
2018-12-11T11:01:03.669Z,78.03
2018-12-11T11:02:03.662Z,78.13
2018-12-11T11:03:03.654Z,79.14
2018-12-11T11:04:03.648Z,79.56
2018-12-11T11:05:03.653Z,80.90
2018-12-11T11:06:03.641Z,80.61
2018-12-11T11:07:03.636Z,79.73
2018-12-11T11:08:03.637Z,77.95
2018-12-11T11:09:03.622Z,75.56
2018-12-11T11:10:03.636Z,75.14
2018-12-11T11:11:03.610Z,75.14
2018-12-11T11:12:03.605Z,74.38
2018-12-11T11:13:03.606Z,74.66
2018-12-11T11:14:03.605Z,75.14
2018-12-11T11:15:03.595Z,74.38
2018-12-11T11:16:03.645Z,75.91
2018-12-11T11:17:03.584Z,76.42
2018-12-11T11:18:03.582Z,75.14
2018-12-11T11:19:03.573Z,75.24
2018-12-11T11:20:03.569Z,74.82
2018-12-11T11:21:03.557Z,75.78
2018-12-11T11:22:03.551Z,75.68
2018-12-11T11:23:03.580Z,76.56
2018-12-11T11:24:03.541Z,77.99
2018-12-11T11:25:03.541Z,78.66
2018-12-11T11:26:03.535Z,78.75
2018-12-11T11:27:03.533Z,79.10
2018-12-11T11:28:03.525Z,79.67
2018-12-11T11:29:03.514Z,81.20
2018-12-11T11:30:03.509Z,80.91
2018-12-11T11:31:03.508Z,80.81
2018-12-11T11:32:03.503Z,80.33
2018-12-11T11:33:03.504Z,80.53
2018-12-11T11:34:03.484Z,80.43
2018-12-11T11:35:03.479Z,80.15
2018-12-11T11:36:03.473Z,81.10
2018-12-11T11:37:03.475Z,82.09
2018-12-11T11:38:03.466Z,81.86
2018-12-11T11:39:03.463Z,81.10
2018-12-11T11:40:03.454Z,80.81
2018-12-11T11:41:03.444Z,80.95
2018-12-11T11:42:03.436Z,81.04
2018-12-11T11:43:03.433Z,80.66
2018-12-11T11:44:03.424Z,79.80
2018-12-11T11:45:03.422Z,79.80
2018-12-11T11:46:03.415Z,80.91
2018-12-11T11:47:03.405Z,81.54
2018-12-11T11:48:03.402Z,82.83
2018-12-11T11:49:03.397Z,87.07
2018-12-11T11:50:03.390Z,87.51
2018-12-11T11:51:03.391Z,90.51
2018-12-11T11:52:03.378Z,91.75
2018-12-11T11:53:03.366Z,92.32
2018-12-11T11:54:03.358Z,93.27
2018-12-11T11:55:03.350Z,95.51
2018-12-11T11:56:03.343Z,93.32
2018-12-11T11:57:03.342Z,95.22
2018-12-11T11:58:03.333Z,95.79
2018-12-11T11:59:03.322Z,96.55
2018-12-11T12:00:03.314Z,98.27
2018-12-11T12:01:03.302Z,97.31
2018-12-11T12:02:03.294Z,98.08
2018-12-11T12:03:03.288Z,98.17
2018-12-11T12:04:03.279Z,98.27
2018-12-11T12:05:03.267Z,98.83
2018-12-11T12:06:03.256Z,99.50
2018-12-11T12:07:03.249Z,99.79
2018-12-11T12:08:03.240Z,99.69
2018-12-11T12:09:03.234Z,98.88
2018-12-11T12:10:03.225Z,99.12
2018-12-11T12:11:03.215Z,99.88
2018-12-11T12:12:03.208Z,99.79
2018-12-11T12:13:03.193Z,99.88
2018-12-11T12:14:03.183Z,99.99
2018-12-11T12:15:03.173Z,99.99
2018-12-11T12:16:03.164Z,99.99
2018-12-11T12:17:03.159Z,99.99
2018-12-11T12:18:03.150Z,99.99
2018-12-11T12:19:03.137Z,99.99
2018-12-11T12:20:03.126Z,99.99
2018-12-11T12:21:03.120Z,99.99
2018-12-11T12:22:03.110Z,99.99
2018-12-11T12:23:03.102Z,99.99
2018-12-11T12:24:03.093Z,99.99
2018-12-11T12:25:03.079Z,99.99
2018-12-11T12:26:03.069Z,99.99
2018-12-11T12:27:03.058Z,99.99
2018-12-11T12:28:03.053Z,99.99
2018-12-11T12:29:03.046Z,99.99
2018-12-11T12:30:03.034Z,99.99
2018-12-11T12:31:03.023Z,99.99
2018-12-11T12:32:03.015Z,99.99
2018-12-11T12:33:03.000Z,99.79
2018-12-11T12:34:02.990Z,99.99
2018-12-11T12:35:02.985Z,99.60
2018-12-11T12:36:02.975Z,98.74
2018-12-11T12:37:02.963Z,98.83
2018-12-11T12:38:02.955Z,99.12
2018-12-11T12:39:02.941Z,99.88
2018-12-11T12:40:02.938Z,99.88
2018-12-11T12:41:02.928Z,99.60
2018-12-11T12:42:02.923Z,99.02
2018-12-11T12:43:02.906Z,98.83
2018-12-11T12:44:02.896Z,98.08
2018-12-11T12:45:02.883Z,98.17
2018-12-11T12:46:02.872Z,99.41
2018-12-11T12:47:02.868Z,98.74
2018-12-11T12:48:02.856Z,99.41
2018-12-11T12:49:02.849Z,99.55
2018-12-11T12:50:02.839Z,99.65
2018-12-11T12:51:02.824Z,99.99
2018-12-11T12:52:02.817Z,99.65